Time;durP1;ratioP1;P1;durP2;ratioP2;P2;SDS_P1;SDS_P2;PMS_P1;PMS_P2;Temp;Humidity;BMP_temperature;BMP_pressure;BME280_temperature;BME280_humidity;BME280_pressure;Samples;Min_cycle;Max_cycle;Signal;HPM_P1;HPM_P2
2023/06/10 00:01:38;;;;;;;;;;;;;;;15.25;100.00;96946.56;110251;1242;59716;-72
2023/06/10 00:04:07;;;;;;;;;;;;;;;15.26;100.00;96941.44;110383;1240;60108;-70
2023/06/10 00:06:37;;;;;;;;;;;;;;;15.25;100.00;96937.14;110236;1241;71628;-70
2023/06/10 00:09:10;;;;;;;;;;;;;;;15.24;100.00;96935.81;110364;1241;69531;-71
2023/06/10 00:11:41;;;;;;;;;;;;;;;15.23;100.00;96935.09;110278;1248;69280;-71
2023/06/10 00:14:11;;;;;;;;;;;;;;;15.20;100.00;96931.27;110335;1241;59692;-71
2023/06/10 00:16:44;;;;;;;;;;;;;;;15.18;100.00;96931.66;110251;1241;59656;-70
2023/06/10 00:19:18;;;;;;;;;;;;;;;15.16;100.00;96929.92;110347;1240;71400;-70
2023/06/10 00:21:51;;;;;;;;;;;;;;;15.14;100.00;96933.42;110321;1240;69505;-69
2023/06/10 00:24:21;;;;;;;;;;;;;;;15.15;100.00;96937.64;110291;1241;69084;-71
2023/06/10 00:26:51;;;;;;;;;;;;;;;15.16;100.00;96939.10;110352;1241;59687;-72
2023/06/10 00:29:23;;;;;;;;;;;;;;;15.16;100.00;96938.21;110135;1240;60115;-72
2023/06/10 00:31:57;;;;;;;;;;;;;;;15.18;100.00;96938.56;110272;1243;71205;-71
2023/06/10 00:34:28;;;;;;;;;;;;;;;15.17;100.00;96941.82;110128;1244;70058;-71
2023/06/10 00:36:59;;;;;;;;;;;;;;;15.16;100.00;96942.70;110212;1239;68556;-71
2023/06/10 00:39:30;;;;;;;;;;;;;;;15.16;100.00;96942.36;110371;1241;59740;-71
2023/06/10 00:42:00;;;;;;;;;;;;;;;15.18;100.00;96943.80;110530;1241;59675;-72
2023/06/10 00:44:30;;;;;;;;;;;;;;;15.18;100.00;96943.77;110457;1241;70645;-70
2023/06/10 00:46:59;;;;;;;;;;;;;;;15.18;100.00;96941.83;110361;1241;68675;-71
2023/06/10 00:49:29;;;;;;;;;;;;;;;15.19;100.00;96940.67;110327;1241;69867;-71
2023/06/10 00:52:00;;;;;;;;;;;;;;;15.19;100.00;96940.34;110312;1241;59729;-70
2023/06/10 00:54:32;;;;;;;;;;;;;;;15.19;100.00;96944.20;110301;1241;59686;-70
2023/06/10 00:57:04;;;;;;;;;;;;;;;15.19;100.00;96945.62;110156;1244;70666;-71
2023/06/10 00:59:36;;;;;;;;;;;;;;;15.18;100.00;96946.04;110309;1240;69227;-71
2023/06/10 01:02:07;;;;;;;;;;;;;;;15.17;100.00;96947.27;110245;1242;68530;-71
2023/06/10 01:04:40;;;;;;;;;;;;;;;15.15;100.00;96949.16;110283;1241;59686;-71
2023/06/10 01:07:24;;;;;;;;;;;;;;;15.14;100.00;96949.06;110305;1241;60155;-72
2023/06/10 01:10:09;;;;;;;;;;;;;;;15.13;100.00;96951.63;110328;1240;71415;-71
2023/06/10 01:12:53;;;;;;;;;;;;;;;15.10;100.00;96947.91;110323;1239;69307;-70
2023/06/10 01:15:26;;;;;;;;;;;;;;;15.09;100.00;96948.02;110169;1244;68705;-71
2023/06/10 01:18:04;;;;;;;;;;;;;;;15.08;100.00;96948.70;110275;1240;59660;-72
2023/06/10 01:20:36;;;;;;;;;;;;;;;15.06;100.00;96946.61;110294;1240;59741;-71
2023/06/10 01:23:07;;;;;;;;;;;;;;;15.02;100.00;96941.63;110247;1240;70691;-71
2023/06/10 01:25:40;;;;;;;;;;;;;;;15.01;100.00;96939.65;110302;1241;68486;-72
2023/06/10 01:28:12;;;;;;;;;;;;;;;14.97;100.00;96938.48;110180;1240;68541;-71
2023/06/10 01:30:56;;;;;;;;;;;;;;;14.92;100.00;96939.02;110122;1244;59685;-71
2023/06/10 01:33:35;;;;;;;;;;;;;;;14.90;100.00;96937.33;110361;1241;59675;-72
2023/06/10 01:36:05;;;;;;;;;;;;;;;14.86;100.00;96940.15;110317;1240;70509;-70
2023/06/10 01:38:40;;;;;;;;;;;;;;;14.85;100.00;96942.70;110270;1241;68560;-70
2023/06/10 01:41:15;;;;;;;;;;;;;;;14.81;100.00;96943.23;110186;1240;69070;-71
2023/06/10 01:43:46;;;;;;;;;;;;;;;14.79;100.00;96942.38;110135;1244;59725;-69
2023/06/10 01:46:19;;;;;;;;;;;;;;;14.78;100.00;96944.89;110201;1241;59646;-70
2023/06/10 01:48:49;;;;;;;;;;;;;;;14.80;100.00;96942.66;110136;1240;71713;-72
2023/06/10 01:51:19;;;;;;;;;;;;;;;14.81;100.00;96940.59;110312;1241;70049;-71
2023/06/10 01:53:49;;;;;;;;;;;;;;;14.82;100.00;96937.83;110293;1240;68695;-72
2023/06/10 01:56:20;;;;;;;;;;;;;;;14.84;100.00;96936.45;110466;1241;59660;-71
2023/06/10 01:58:55;;;;;;;;;;;;;;;14.86;100.00;96939.06;110153;1244;59725;-70
2023/06/10 02:01:26;;;;;;;;;;;;;;;14.87;100.00;96941.06;110302;1241;71417;-71
2023/06/10 02:03:57;;;;;;;;;;;;;;;14.86;100.00;96944.09;110292;1241;69373;-71
2023/06/10 02:06:28;;;;;;;;;;;;;;;14.88;100.00;96940.62;110092;1244;68448;-71
2023/06/10 02:08:59;;;;;;;;;;;;;;;14.88;100.00;96942.20;110275;1241;59688;-71
2023/06/10 02:11:34;;;;;;;;;;;;;;;14.86;100.00;96946.79;110322;1241;59685;-71
2023/06/10 02:14:07;;;;;;;;;;;;;;;14.86;100.00;96945.08;110168;1241;70496;-72
2023/06/10 02:16:37;;;;;;;;;;;;;;;14.84;100.00;96944.21;110334;1241;68362;-71
2023/06/10 02:19:08;;;;;;;;;;;;;;;14.83;100.00;96942.37;110150;1244;69258;-71
2023/06/10 02:21:45;;;;;;;;;;;;;;;14.83;100.00;96944.09;110208;1241;59759;-71
2023/06/10 02:24:15;;;;;;;;;;;;;;;14.81;100.00;96949.38;110292;1240;59706;-71
2023/06/10 02:26:47;;;;;;;;;;;;;;;14.80;100.00;96949.30;110265;1240;71402;-71
2023/06/10 02:29:17;;;;;;;;;;;;;;;14.78;100.00;96950.45;110247;1242;69779;-73
2023/06/10 02:31:49;;;;;;;;;;;;;;;14.79;100.00;96953.27;110124;1240;68523;-73
2023/06/10 02:34:19;;;;;;;;;;;;;;;14.78;100.00;96954.31;110162;1239;59753;-71
2023/06/10 02:36:51;;;;;;;;;;;;;;;14.78;100.00;96955.59;110311;1241;59708;-73
2023/06/10 02:39:22;;;;;;;;;;;;;;;14.78;100.00;96957.86;110183;1244;70691;-71
2023/06/10 02:41:52;;;;;;;;;;;;;;;14.81;100.00;96956.64;110168;1243;69225;-73
2023/06/10 02:44:23;;;;;;;;;;;;;;;14.80;100.00;96957.59;110297;1240;68612;-73
2023/06/10 02:46:52;;;;;;;;;;;;;;;14.80;100.00;96950.16;110470;1240;59743;-73
2023/06/10 02:49:22;;;;;;;;;;;;;;;14.82;100.00;96952.93;110469;1240;59658;-74
2023/06/10 02:51:53;;;;;;;;;;;;;;;14.82;100.00;96950.47;110233;1239;71405;-73
2023/06/10 02:54:23;;;;;;;;;;;;;;;14.83;100.00;96951.83;110157;1244;69041;-72
2023/06/10 02:56:55;;;;;;;;;;;;;;;14.86;100.00;96949.75;110148;1243;68865;-72
2023/06/10 02:59:28;;;;;;;;;;;;;;;14.88;100.00;96950.62;110608;1240;59657;-70
2023/06/10 03:02:01;;;;;;;;;;;;;;;14.90;100.00;96950.79;110319;1241;59741;-71
2023/06/10 03:04:33;;;;;;;;;;;;;;;14.90;100.00;96955.45;110155;1244;71361;-71
2023/06/10 03:07:07;;;;;;;;;;;;;;;14.85;100.00;96953.34;110311;1241;69853;-70
2023/06/10 03:09:38;;;;;;;;;;;;;;;14.83;100.00;96954.92;110138;1240;68516;-72
2023/06/10 03:12:10;;;;;;;;;;;;;;;14.82;100.00;96962.77;110266;1241;59745;-72
2023/06/10 03:14:44;;;;;;;;;;;;;;;14.79;100.00;96966.77;110280;1241;59628;-72
2023/06/10 03:17:14;;;;;;;;;;;;;;;14.75;100.00;96970.08;110356;1240;71228;-71
2023/06/10 03:19:44;;;;;;;;;;;;;;;14.74;100.00;96971.95;110338;1241;69842;-71
2023/06/10 03:22:14;;;;;;;;;;;;;;;14.75;100.00;96971.49;110218;1239;68542;-71
2023/06/10 03:24:57;;;;;;;;;;;;;;;14.76;100.00;96969.05;110390;1241;59808;-73
2023/06/10 03:27:27;;;;;;;;;;;;;;;14.79;100.00;96964.23;110313;1241;59715;-70
2023/06/10 03:30:00;;;;;;;;;;;;;;;14.83;100.00;96962.17;110200;1244;70664;-70
2023/06/10 03:32:30;;;;;;;;;;;;;;;14.86;100.00;96962.71;110130;1240;68703;-71
2023/06/10 03:35:01;;;;;;;;;;;;;;;14.88;100.00;96965.33;110138;1241;68520;-72
2023/06/10 03:37:32;;;;;;;;;;;;;;;14.90;100.00;96962.06;110172;1243;59712;-72
2023/06/10 03:40:03;;;;;;;;;;;;;;;14.90;100.00;96960.61;110282;1244;59717;-71
2023/06/10 03:42:33;;;;;;;;;;;;;;;14.91;100.00;96959.77;110249;1244;71398;-72
2023/06/10 03:45:03;;;;;;;;;;;;;;;14.93;100.00;96957.48;110253;1244;68483;-71
2023/06/10 03:47:36;;;;;;;;;;;;;;;14.96;100.00;96957.84;110249;1241;69088;-71
2023/06/10 03:50:10;;;;;;;;;;;;;;;14.96;100.00;96965.46;110307;1240;59690;-72
2023/06/10 03:52:42;;;;;;;;;;;;;;;14.98;100.00;96967.83;110284;1241;59676;-70
2023/06/10 03:55:13;;;;;;;;;;;;;;;14.99;100.00;96974.92;110144;1240;71453;-71
2023/06/10 03:57:45;;;;;;;;;;;;;;;14.96;100.00;96973.46;110271;1241;69190;-70
2023/06/10 04:00:15;;;;;;;;;;;;;;;14.96;100.00;96972.15;110291;1241;68544;-71
2023/06/10 04:02:48;;;;;;;;;;;;;;;14.97;100.00;96969.85;110364;1247;59747;-72
2023/06/10 04:05:28;;;;;;;;;;;;;;;14.99;100.00;96966.92;110526;1241;59659;-72
2023/06/10 04:07:59;;;;;;;;;;;;;;;15.01;100.00;96964.56;110605;1241;71846;-72
2023/06/10 04:10:28;;;;;;;;;;;;;;;15.07;100.00;96963.53;110308;1243;68492;-72
2023/06/10 04:12:57;;;;;;;;;;;;;;;15.11;100.00;96960.48;110441;1241;69140;-71
2023/06/10 04:15:28;;;;;;;;;;;;;;;15.11;100.00;96959.77;110293;1242;59773;-70
2023/06/10 04:17:58;;;;;;;;;;;;;;;15.12;100.00;96964.19;110309;1241;59670;-71
2023/06/10 04:20:28;;;;;;;;;;;;;;;15.15;100.00;96967.82;110284;1241;70445;-71
2023/06/10 04:22:59;;;;;;;;;;;;;;;15.17;100.00;96965.27;110294;1241;68316;-70
2023/06/10 04:25:29;;;;;;;;;;;;;;;15.22;100.00;96959.66;110125;1243;68739;-72
2023/06/10 04:27:59;;;;;;;;;;;;;;;15.25;100.00;96962.92;110264;1241;59731;-70
2023/06/10 04:30:31;;;;;;;;;;;;;;;15.25;100.00;96966.24;110284;1241;59682;-71
2023/06/10 04:33:01;;;;;;;;;;;;;;;15.28;100.00;96970.38;110401;1240;71161;-71
2023/06/10 04:35:31;;;;;;;;;;;;;;;15.29;100.00;96972.73;110274;1241;69110;-71
2023/06/10 04:38:03;;;;;;;;;;;;;;;15.32;100.00;96979.50;110110;1241;68629;-71
2023/06/10 04:40:33;;;;;;;;;;;;;;;15.35;100.00;96990.52;110101;1243;59748;-71
2023/06/10 04:43:03;;;;;;;;;;;;;;;15.41;100.00;96993.79;110286;1244;59707;-72
2023/06/10 04:45:32;;;;;;;;;;;;;;;15.46;100.00;96992.95;110268;1239;71450;-71
2023/06/10 04:48:03;;;;;;;;;;;;;;;15.52;100.00;96986.22;110402;1240;68508;-72
2023/06/10 04:50:32;;;;;;;;;;;;;;;15.56;100.00;96976.33;110410;1240;68342;-72
2023/06/10 04:53:02;;;;;;;;;;;;;;;15.61;100.00;96972.33;110416;1241;59734;-71
2023/06/10 04:55:33;;;;;;;;;;;;;;;15.66;100.00;96974.30;110165;1240;59761;-71
2023/06/10 04:58:02;;;;;;;;;;;;;;;15.72;100.00;96978.46;110302;1241;70423;-70
2023/06/10 05:00:31;;;;;;;;;;;;;;;15.78;100.00;96983.48;110311;1241;69201;-71
2023/06/10 05:03:01;;;;;;;;;;;;;;;15.84;100.00;96985.73;110323;1241;69112;-72
2023/06/10 05:05:30;;;;;;;;;;;;;;;15.90;100.00;96981.60;110296;1241;59755;-72
2023/06/10 05:07:59;;;;;;;;;;;;;;;15.95;100.00;96974.52;110304;1241;59684;-71
2023/06/10 05:10:31;;;;;;;;;;;;;;;16.07;100.00;96973.66;110320;1248;72002;-73
2023/06/10 05:13:00;;;;;;;;;;;;;;;16.21;100.00;96966.86;110276;1241;69779;-72
2023/06/10 05:15:30;;;;;;;;;;;;;;;16.33;100.00;96959.42;110377;1241;69708;-72
2023/06/10 05:17:59;;;;;;;;;;;;;;;16.39;100.00;96959.39;110504;1241;59776;-70
2023/06/10 05:20:28;;;;;;;;;;;;;;;16.40;100.00;96960.48;110294;1240;59703;-71
2023/06/10 05:22:57;;;;;;;;;;;;;;;16.54;100.00;96955.85;110386;1241;71425;-72
2023/06/10 05:25:27;;;;;;;;;;;;;;;16.60;100.00;96959.20;110350;1241;69344;-71
2023/06/10 05:27:56;;;;;;;;;;;;;;;16.79;100.00;96959.77;110347;1241;69730;-71
2023/06/10 05:30:26;;;;;;;;;;;;;;;17.01;100.00;96963.42;110341;1241;59689;-71
2023/06/10 05:32:56;;;;;;;;;;;;;;;17.25;100.00;96969.33;110451;1240;59734;-71
2023/06/10 05:35:25;;;;;;;;;;;;;;;17.44;100.00;96973.40;110326;1241;70995;-71
2023/06/10 05:37:54;;;;;;;;;;;;;;;17.64;100.00;96973.58;110372;1241;69442;-71
2023/06/10 05:40:23;;;;;;;;;;;;;;;17.81;100.00;96974.38;110323;1240;68514;-71
2023/06/10 05:42:52;;;;;;;;;;;;;;;17.95;100.00;96978.02;110349;1240;59809;-71
2023/06/10 05:45:21;;;;;;;;;;;;;;;18.21;100.00;96984.80;110469;1241;59622;-72
2023/06/10 05:47:51;;;;;;;;;;;;;;;18.37;100.00;96987.06;110308;1241;70546;-71
2023/06/10 05:50:20;;;;;;;;;;;;;;;18.44;100.00;96984.36;110308;1241;68341;-71
2023/06/10 05:52:49;;;;;;;;;;;;;;;18.65;100.00;96984.85;110446;1241;69795;-71
2023/06/10 05:55:18;;;;;;;;;;;;;;;18.85;100.00;96983.33;110272;1241;59842;-71
2023/06/10 05:57:47;;;;;;;;;;;;;;;18.95;100.00;96982.90;110251;1239;59748;-71
2023/06/10 06:00:16;;;;;;;;;;;;;;;19.02;100.00;96975.31;110314;1239;70728;-70
2023/06/10 06:02:45;;;;;;;;;;;;;;;19.03;100.00;96979.97;110306;1240;68554;-72
2023/06/10 06:05:15;;;;;;;;;;;;;;;18.98;99.09;96984.79;110259;1241;69702;-71
2023/06/10 06:07:45;;;;;;;;;;;;;;;19.18;100.00;96984.48;110285;1241;59675;-71
2023/06/10 06:10:14;;;;;;;;;;;;;;;19.24;97.87;96984.88;110258;1240;59684;-71
2023/06/10 06:12:43;;;;;;;;;;;;;;;19.33;99.92;96983.66;110315;1241;70630;-70
2023/06/10 06:15:11;;;;;;;;;;;;;;;19.47;99.08;96980.20;110373;1240;69533;-72
2023/06/10 06:17:40;;;;;;;;;;;;;;;19.57;99.33;96980.90;110279;1241;69375;-71
2023/06/10 06:20:10;;;;;;;;;;;;;;;19.74;97.42;96979.85;110501;1240;59682;-71
2023/06/10 06:22:38;;;;;;;;;;;;;;;19.93;93.99;96978.44;110276;1241;59666;-74
2023/06/10 06:25:07;;;;;;;;;;;;;;;20.39;99.59;96973.98;110381;1241;70598;-72
2023/06/10 06:27:36;;;;;;;;;;;;;;;20.81;98.86;96968.97;110395;1240;69828;-70
2023/06/10 06:30:05;;;;;;;;;;;;;;;21.13;95.04;96970.20;110247;1241;68547;-71
2023/06/10 06:32:35;;;;;;;;;;;;;;;21.32;92.86;96968.55;110391;1241;59722;-70
2023/06/10 06:35:05;;;;;;;;;;;;;;;21.58;92.21;96967.66;110293;1241;59737;-71
2023/06/10 06:37:35;;;;;;;;;;;;;;;21.70;85.81;96967.19;110330;1241;70617;-73
2023/06/10 06:40:15;;;;;;;;;;;;;;;21.76;78.72;96963.59;110289;1244;69296;-72
2023/06/10 06:42:45;;;;;;;;;;;;;;;21.92;78.48;96962.52;110409;1241;68574;-71
2023/06/10 06:45:23;;;;;;;;;;;;;;;22.39;77.80;96957.80;110258;1241;59669;-73
2023/06/10 06:47:52;;;;;;;;;;;;;;;22.73;76.44;96956.20;110006;1239;532889;-71
2023/06/10 06:50:21;;;;;;;;;;;;;;;22.92;74.70;96955.51;110416;1241;71954;-71
2023/06/10 06:52:50;;;;;;;;;;;;;;;23.47;74.76;96957.33;110392;1241;68731;-72
2023/06/10 06:55:19;;;;;;;;;;;;;;;24.05;70.74;96954.25;110446;1241;69414;-71
2023/06/10 06:57:48;;;;;;;;;;;;;;;24.63;72.94;96949.83;110202;1242;59768;-71
2023/06/10 07:00:17;;;;;;;;;;;;;;;25.05;68.43;96948.37;110429;1241;59689;-71
2023/06/10 07:02:46;;;;;;;;;;;;;;;25.06;65.18;96947.46;110431;1241;70442;-72
2023/06/10 07:05:15;;;;;;;;;;;;;;;25.12;66.01;96949.24;110446;1241;69186;-72
2023/06/10 07:07:43;;;;;;;;;;;;;;;24.85;65.24;96946.77;110412;1241;69838;-73
2023/06/10 07:10:12;;;;;;;;;;;;;;;24.48;63.98;96945.42;110393;1241;59603;-72
2023/06/10 07:12:41;;;;;;;;;;;;;;;24.56;65.05;96946.27;110412;1240;59729;-73
2023/06/10 07:15:09;;;;;;;;;;;;;;;24.63;64.28;96946.54;110409;1239;72327;-71
2023/06/10 07:17:39;;;;;;;;;;;;;;;25.00;63.57;96949.20;110309;1242;69676;-73
2023/06/10 07:20:08;;;;;;;;;;;;;;;24.99;62.80;96943.83;110409;1239;69063;-71
2023/06/10 07:22:38;;;;;;;;;;;;;;;25.02;64.20;96941.05;110455;1241;59679;-72
2023/06/10 07:25:07;;;;;;;;;;;;;;;25.08;61.99;96940.77;110426;1241;59676;-71
2023/06/10 07:27:37;;;;;;;;;;;;;;;25.03;60.52;96937.39;110399;1241;71366;-72
2023/06/10 07:30:08;;;;;;;;;;;;;;;24.81;62.60;96942.27;110418;1240;69239;-72
2023/06/10 07:32:36;;;;;;;;;;;;;;;24.83;62.24;96936.30;110442;1241;69276;-72
2023/06/10 07:35:08;;;;;;;;;;;;;;;24.84;61.76;96937.48;110404;1240;59708;-72
2023/06/10 07:37:38;;;;;;;;;;;;;;;25.10;61.46;96936.55;110479;1241;59663;-70
2023/06/10 07:40:06;;;;;;;;;;;;;;;25.17;60.99;96934.52;110393;1239;71435;-72
2023/06/10 07:42:38;;;;;;;;;;;;;;;25.41;60.82;96935.89;110405;1240;68511;-72
2023/06/10 07:45:07;;;;;;;;;;;;;;;25.75;59.81;96932.54;110381;1241;69685;-72
2023/06/10 07:47:36;;;;;;;;;;;;;;;26.19;57.96;96928.31;110425;1241;59760;-72
2023/06/10 07:50:05;;;;;;;;;;;;;;;26.49;56.51;96931.85;110368;1245;59709;-72
2023/06/10 07:52:34;;;;;;;;;;;;;;;26.82;55.21;96923.29;110349;1241;70659;-72
2023/06/10 07:55:04;;;;;;;;;;;;;;;27.06;53.42;96925.13;110338;1241;68454;-70
2023/06/10 07:57:36;;;;;;;;;;;;;;;26.65;54.28;96919.73;110423;1241;69299;-69
2023/06/10 08:00:05;;;;;;;;;;;;;;;26.41;54.53;96923.92;110402;1241;59730;-71
2023/06/10 08:02:40;;;;;;;;;;;;;;;26.11;53.84;96919.48;110373;1239;59753;-70
2023/06/10 08:05:09;;;;;;;;;;;;;;;26.05;55.56;96918.62;110435;1240;71911;-70
2023/06/10 08:07:41;;;;;;;;;;;;;;;26.66;54.23;96917.96;110472;1241;69296;-71
2023/06/10 08:10:11;;;;;;;;;;;;;;;26.75;53.26;96917.15;110409;1241;69353;-71
2023/06/10 08:12:39;;;;;;;;;;;;;;;26.74;54.06;96918.78;110397;1241;59777;-71
2023/06/10 08:15:08;;;;;;;;;;;;;;;26.64;54.81;96920.46;110271;1240;59685;-70
2023/06/10 08:17:38;;;;;;;;;;;;;;;26.79;53.66;96919.08;110437;1240;71370;-71
2023/06/10 08:20:07;;;;;;;;;;;;;;;26.74;52.83;96918.98;110447;1241;69222;-72
2023/06/10 08:22:36;;;;;;;;;;;;;;;26.98;51.44;96921.63;110238;1243;69777;-72
2023/06/10 08:25:05;;;;;;;;;;;;;;;27.42;51.78;96919.31;110383;1241;59747;-71
2023/06/10 08:27:35;;;;;;;;;;;;;;;27.76;51.63;96922.18;110412;1241;59685;-72
2023/06/10 08:30:03;;;;;;;;;;;;;;;27.94;50.38;96920.31;110769;1241;70408;-72
2023/06/10 08:32:32;;;;;;;;;;;;;;;27.66;49.83;96915.23;110336;1240;68376;-71
2023/06/10 08:35:00;;;;;;;;;;;;;;;27.19;48.77;96911.56;110235;1240;68735;-72
2023/06/10 08:37:29;;;;;;;;;;;;;;;27.23;49.32;96910.83;110282;1242;59744;-69
2023/06/10 08:39:58;;;;;;;;;;;;;;;27.39;50.46;96907.11;110331;1242;59659;-70
2023/06/10 08:42:38;;;;;;;;;;;;;;;27.56;49.86;96907.74;110306;1240;71782;-71
2023/06/10 08:45:07;;;;;;;;;;;;;;;28.15;49.73;96901.92;110968;1241;69211;-72
2023/06/10 08:47:38;;;;;;;;;;;;;;;28.55;48.65;96897.27;110517;1240;68682;-71
2023/06/10 08:50:08;;;;;;;;;;;;;;;28.78;46.81;96895.36;110291;1244;59759;-71
2023/06/10 08:52:42;;;;;;;;;;;;;;;28.39;46.60;96895.20;110118;1244;59783;-71
2023/06/10 08:55:14;;;;;;;;;;;;;;;28.30;47.99;96895.76;110374;1240;71974;-71
2023/06/10 08:57:44;;;;;;;;;;;;;;;28.69;46.06;96891.69;110318;1240;70096;-71
2023/06/10 09:00:13;;;;;;;;;;;;;;;28.99;45.01;96889.90;110281;1242;68464;-71
2023/06/10 09:02:43;;;;;;;;;;;;;;;28.86;45.30;96891.25;110272;1240;59676;-70
2023/06/10 09:05:12;;;;;;;;;;;;;;;28.94;44.45;96887.44;110305;1242;59613;-70
2023/06/10 09:07:41;;;;;;;;;;;;;;;29.04;42.89;96888.09;110284;1244;71399;-70
2023/06/10 09:10:11;;;;;;;;;;;;;;;29.00;42.34;96887.42;110280;1241;68597;-70
2023/06/10 09:12:40;;;;;;;;;;;;;;;28.99;43.69;96884.08;110285;1242;68896;-70
2023/06/10 09:15:09;;;;;;;;;;;;;;;29.42;44.03;96882.75;110286;1240;60159;-71
2023/06/10 09:17:40;;;;;;;;;;;;;;;29.58;44.96;96881.34;110323;1240;59743;-71
2023/06/10 09:20:09;;;;;;;;;;;;;;;30.09;43.87;96873.45;110151;1244;71430;-72
2023/06/10 09:22:38;;;;;;;;;;;;;;;30.44;43.15;96864.48;110194;1242;69879;-70
2023/06/10 09:25:08;;;;;;;;;;;;;;;31.03;41.47;96860.30;110235;1240;69843;-70
2023/06/10 09:27:45;;;;;;;;;;;;;;;30.63;40.85;96859.20;110276;1242;59763;-70
2023/06/10 09:30:27;;;;;;;;;;;;;;;30.45;40.64;96853.00;110154;1240;59725;-71
2023/06/10 09:32:57;;;;;;;;;;;;;;;30.76;41.13;96850.73;110259;1240;71959;-72
2023/06/10 09:35:27;;;;;;;;;;;;;;;31.21;40.06;96854.98;110339;1240;69822;-71
2023/06/10 09:38:00;;;;;;;;;;;;;;;31.90;39.04;96851.02;110420;1241;69277;-71
2023/06/10 09:40:28;;;;;;;;;;;;;;;31.90;35.85;96853.79;110289;1242;59694;-72
2023/06/10 09:43:00;;;;;;;;;;;;;;;31.48;36.67;96855.91;110295;1242;59758;-72
2023/06/10 09:45:32;;;;;;;;;;;;;;;31.89;38.15;96850.44;110108;1243;70505;-71
2023/06/10 09:48:00;;;;;;;;;;;;;;;32.39;36.47;96846.77;110290;1242;69217;-71
2023/06/10 09:50:33;;;;;;;;;;;;;;;32.52;35.40;96848.40;110279;1244;69305;-71
2023/06/10 09:53:03;;;;;;;;;;;;;;;31.85;36.56;96848.35;110264;1240;59676;-71
2023/06/10 09:55:33;;;;;;;;;;;;;;;31.19;38.47;96847.48;110296;1241;59672;-70
2023/06/10 09:58:01;;;;;;;;;;;;;;;31.30;38.63;96842.84;110143;1243;72201;-70
2023/06/10 10:00:32;;;;;;;;;;;;;;;30.94;38.45;96836.34;110181;1242;69712;-71
2023/06/10 10:03:01;;;;;;;;;;;;;;;30.76;39.98;96837.58;110295;1240;68796;-71
2023/06/10 10:05:30;;;;;;;;;;;;;;;30.68;41.61;96835.27;110278;1240;59735;-71
2023/06/10 10:07:59;;;;;;;;;;;;;;;30.69;41.87;96832.73;110248;1243;59684;-71
2023/06/10 10:10:28;;;;;;;;;;;;;;;30.82;41.00;96830.02;110251;1240;71376;-72
2023/06/10 10:12:56;;;;;;;;;;;;;;;30.35;42.46;96824.02;110168;1240;69182;-72
2023/06/10 10:15:32;;;;;;;;;;;;;;;29.76;43.03;96824.80;110284;1240;69892;-72
2023/06/10 10:18:07;;;;;;;;;;;;;;;29.19;44.28;96824.31;110159;1248;60211;-72
2023/06/10 10:20:39;;;;;;;;;;;;;;;28.70;45.09;96824.68;110336;1242;59760;-72
2023/06/10 10:23:10;;;;;;;;;;;;;;;28.15;47.25;96822.69;110266;1242;71978;-71
2023/06/10 10:25:41;;;;;;;;;;;;;;;27.79;48.62;96822.21;110192;1240;68538;-71
2023/06/10 10:28:10;;;;;;;;;;;;;;;27.44;49.93;96828.54;110260;1243;70187;-70
2023/06/10 10:30:46;;;;;;;;;;;;;;;27.09;51.32;96828.27;110324;1242;59742;-71
2023/06/10 10:33:40;;;;;;;;;;;;;;;26.75;52.46;96830.38;110267;1242;59686;-70
2023/06/10 10:36:09;;;;;;;;;;;;;;;26.38;53.94;96826.52;110289;1243;71370;-72
2023/06/10 10:38:39;;;;;;;;;;;;;;;26.26;54.83;96821.42;110288;1241;69184;-71
2023/06/10 10:41:08;;;;;;;;;;;;;;;26.25;54.13;96815.08;110294;1242;68171;-71
2023/06/10 10:43:37;;;;;;;;;;;;;;;26.07;54.45;96810.17;110304;1243;59681;-71
2023/06/10 10:46:11;;;;;;;;;;;;;;;26.02;54.85;96808.74;110281;1242;59696;-71
2023/06/10 10:48:43;;;;;;;;;;;;;;;25.91;54.73;96818.91;110310;1242;71245;-70
2023/06/10 10:51:12;;;;;;;;;;;;;;;25.75;54.35;96822.98;110298;1240;69834;-71
2023/06/10 10:53:40;;;;;;;;;;;;;;;25.55;55.72;96830.31;110275;1244;69298;-71
2023/06/10 10:56:14;;;;;;;;;;;;;;;25.49;55.60;96831.05;110206;1242;59759;-71
2023/06/10 10:58:42;;;;;;;;;;;;;;;25.54;55.21;96829.63;110276;1240;59679;-71
2023/06/10 11:01:14;;;;;;;;;;;;;;;25.54;55.30;96828.36;110280;1243;72024;-71
2023/06/10 11:03:47;;;;;;;;;;;;;;;25.46;54.57;96825.02;110290;1243;70029;-71
2023/06/10 11:06:17;;;;;;;;;;;;;;;25.38;55.66;96822.41;110274;1240;69065;-70
2023/06/10 11:08:47;;;;;;;;;;;;;;;25.29;56.19;96821.73;110189;1242;59741;-71
2023/06/10 11:11:20;;;;;;;;;;;;;;;25.26;56.62;96825.98;110218;1240;59679;-70
2023/06/10 11:14:19;;;;;;;;;;;;;;;25.20;55.77;96824.48;110207;1242;71407;-71
2023/06/10 11:16:49;;;;;;;;;;;;;;;25.03;55.83;96823.82;110104;1242;69187;-70
2023/06/10 11:19:40;;;;;;;;;;;;;;;24.87;56.34;96824.30;110171;1242;68511;-72
2023/06/10 11:22:16;;;;;;;;;;;;;;;24.66;56.96;96818.09;110144;1242;59722;-71
2023/06/10 11:24:48;;;;;;;;;;;;;;;24.48;58.22;96810.27;110161;1240;60023;-68
2023/06/10 11:27:18;;;;;;;;;;;;;;;24.41;59.13;96809.77;110179;1240;71423;-70
2023/06/10 11:30:07;;;;;;;;;;;;;;;24.36;59.89;96805.34;110260;1242;69280;-69
2023/06/10 11:32:36;;;;;;;;;;;;;;;24.28;63.79;96806.27;110163;1242;69771;-71
2023/06/10 11:35:07;;;;;;;;;;;;;;;24.22;64.43;96802.98;110286;1242;59710;-70
2023/06/10 11:37:36;;;;;;;;;;;;;;;24.20;61.45;96799.61;110327;1240;59635;-71
2023/06/10 11:40:09;;;;;;;;;;;;;;;24.08;64.09;96800.77;110179;1240;71960;-72
2023/06/10 11:42:42;;;;;;;;;;;;;;;23.97;67.11;96801.01;110356;1242;70036;-70
2023/06/10 11:45:15;;;;;;;;;;;;;;;23.94;66.42;96798.43;110362;1240;69469;-72
2023/06/10 11:47:57;;;;;;;;;;;;;;;23.96;67.95;96803.97;110141;1242;59736;-70
2023/06/10 11:50:30;;;;;;;;;;;;;;;24.06;65.72;96799.20;110199;1243;60140;-71
2023/06/10 11:52:59;;;;;;;;;;;;;;;24.17;67.62;96796.58;110327;1242;71976;-71
2023/06/10 11:55:44;;;;;;;;;;;;;;;24.24;72.44;96796.80;110282;1242;68516;-71
2023/06/10 11:58:20;;;;;;;;;;;;;;;24.44;71.38;96796.98;110300;1244;69931;-70
2023/06/10 12:00:49;;;;;;;;;;;;;;;24.62;71.20;96793.91;110274;1244;59750;-68
2023/06/10 12:03:18;;;;;;;;;;;;;;;24.86;68.31;96793.55;110193;1242;59674;-70
2023/06/10 12:06:00;;;;;;;;;;;;;;;24.98;66.68;96787.98;110190;1240;71788;-71
2023/06/10 12:08:29;;;;;;;;;;;;;;;25.19;64.66;96778.05;110293;1244;69873;-72
2023/06/10 12:11:00;;;;;;;;;;;;;;;25.24;62.82;96775.80;110163;1240;69877;-71
2023/06/10 12:13:28;;;;;;;;;;;;;;;25.31;62.38;96777.16;110203;1244;59731;-71
2023/06/10 12:16:09;;;;;;;;;;;;;;;25.34;62.16;96774.90;110186;1240;59624;-69
2023/06/10 12:18:38;;;;;;;;;;;;;;;25.46;61.63;96775.17;110163;1242;72130;-71
2023/06/10 12:21:21;;;;;;;;;;;;;;;25.50;61.07;96772.66;110301;1242;69876;-70
2023/06/10 12:24:05;;;;;;;;;;;;;;;25.68;60.52;96766.54;110333;1242;69870;-71
2023/06/10 12:26:39;;;;;;;;;;;;;;;25.66;59.93;96760.39;110176;1242;59753;-70
2023/06/10 12:29:18;;;;;;;;;;;;;;;25.83;60.58;96755.66;110239;1242;59743;-72
2023/06/10 12:32:00;;;;;;;;;;;;;;;26.00;60.18;96757.23;110192;1243;71413;-70
2023/06/10 12:34:36;;;;;;;;;;;;;;;26.11;57.84;96752.27;110316;1242;69188;-71
2023/06/10 12:37:06;;;;;;;;;;;;;;;26.47;56.13;96753.35;110194;1244;69874;-71
2023/06/10 12:39:35;;;;;;;;;;;;;;;26.73;54.59;96753.25;110282;1242;59636;-72
2023/06/10 12:42:05;;;;;;;;;;;;;;;26.91;53.63;96753.37;110190;1240;59708;-72
2023/06/10 12:44:35;;;;;;;;;;;;;;;27.24;50.82;96743.89;110364;1244;70641;-73
2023/06/10 12:47:08;;;;;;;;;;;;;;;27.49;48.14;96744.23;110198;1242;69799;-72
2023/06/10 12:49:38;;;;;;;;;;;;;;;27.93;47.11;96741.47;110181;1242;69861;-71
2023/06/10 12:52:07;;;;;;;;;;;;;;;28.21;44.89;96739.44;110126;1242;59687;-71
2023/06/10 12:54:36;;;;;;;;;;;;;;;28.40;42.92;96738.60;110163;1242;59630;-72